Main page
METAR-TAF:

METAR-TAF

Airports :

Christchurch, New Zealand

Christchurch International Airport

latitude: 43-29S, longitude: 172-33E, elevation: 38 m

Current weather observation

The report was made 23 minutes ago, at 21:30 UTC
Wind 11 kt from the East/Northeast
Temperature 14°C
Humidity 77%
Pressure 1007 hPa
Visibility 10 km or more

METAR: NZCH 282130Z AUTO 07011KT 9999 NCD 14/10 Q1007 NOSIG

Time: 09:53 (21:53 UTC)

Forecast

The report was made 4 hours and 45 minutes ago, at 17:08 UTC
Forecast valid from 28 at 18 UTC to 29 at 18 UTC
Wind 12 kt from the East/Northeast
Visibility 10 km or more
no clouds below 1500 m and no cumulonimbus
Becoming
from 29 at 08 UTC to 29 at 10 UTC
Wind 5 kt from the West/Northwest

TAF: NZCH 281708Z 2818/2918 06012KT CAVOK BECMG 2908/2910 30005KT

Weather observations and forecasts of more than 4000 airports (METAR and TAF reports).

The available stations are represented by yellow and red dots on the map.

Hover mouse over dot to see the name of the station.

Then click to see weather observations and forecasts.

To change the map : click on the green buttons with a black cross to zoom in, on the green button with a dash to zoom out, or on the green arrows for adjacent maps.


METAR-TAF: